Time;durP1;ratioP1;P1;durP2;ratioP2;P2;SDS_P1;SDS_P2;PMS_P1;PMS_P2;Temp;Humidity;BMP_temperature;BMP_pressure;BME280_temperature;BME280_humidity;BME280_pressure;Samples;Min_cycle;Max_cycle;Signal;HPM_P1;HPM_P2
2021/08/28 00:01:20;;;;;;;16.95;10.20;;;12.30;99.90;;;;;;4895357;29;20127;-67
2021/08/28 00:03:47;;;;;;;16.80;9.23;;;12.30;99.90;;;;;;4893987;29;20036;-68
2021/08/28 00:06:15;;;;;;;14.18;9.48;;;12.30;99.90;;;;;;4895050;29;20510;-68
2021/08/28 00:08:42;;;;;;;14.90;9.40;;;12.30;99.90;;;;;;4895588;29;20045;-68
2021/08/28 00:11:09;;;;;;;15.20;9.68;;;12.30;99.90;;;;;;4895070;29;20517;-68
2021/08/28 00:13:37;;;;;;;15.38;10.27;;;12.30;99.90;;;;;;4894453;29;20514;-67
2021/08/28 00:16:09;;;;;;;;;;;12.40;99.90;;;;;;4895292;29;20060;-68
2021/08/28 00:18:37;;;;;;;15.50;10.43;;;12.40;99.90;;;;;;4891778;29;20414;-68
2021/08/28 00:21:06;;;;;;;15.52;9.32;;;12.40;99.90;;;;;;4893686;29;20049;-68
2021/08/28 00:23:33;;;;;;;18.52;12.00;;;12.50;99.90;;;;;;4891673;29;20061;-67
2021/08/28 00:26:11;;;;;;;17.45;11.85;;;12.50;99.90;;;;;;4893546;29;20120;-68
2021/08/28 00:28:38;;;;;;;18.25;11.77;;;12.50;99.90;;;;;;4893320;29;20052;-68
2021/08/28 00:31:06;;;;;;;14.75;10.38;;;12.60;99.90;;;;;;4895396;29;20147;-68
2021/08/28 00:33:34;;;;;;;17.67;11.45;;;12.60;99.90;;;;;;4912342;29;20095;-68
2021/08/28 00:36:01;;;;;;;20.08;11.60;;;12.60;99.90;;;;;;4890595;29;20060;-68
2021/08/28 00:38:28;;;;;;;16.63;11.43;;;12.60;99.90;;;;;;4894382;29;20141;-68
2021/08/28 00:40:57;;;;;;;16.60;10.82;;;12.70;99.90;;;;;;4893044;29;20124;-67
2021/08/28 00:43:30;;;;;;;13.35;9.98;;;12.70;99.90;;;;;;4894804;29;20091;-69
2021/08/28 00:45:58;;;;;;;13.70;9.77;;;12.70;99.90;;;;;;4893119;29;20092;-67
2021/08/28 00:48:26;;;;;;;12.48;9.57;;;12.70;99.90;;;;;;4887227;29;20064;-67
2021/08/28 00:50:53;;;;;;;14.73;10.00;;;12.70;99.90;;;;;;4887795;29;20412;-67
2021/08/28 00:53:20;;;;;;;12.80;9.02;;;12.80;99.90;;;;;;4894413;29;20127;-67
2021/08/28 00:55:50;;;;;;;13.95;9.60;;;12.80;99.90;;;;;;4894364;29;20052;-67
2021/08/28 00:58:18;;;;;;;12.20;8.90;;;12.70;99.90;;;;;;4892545;29;20045;-67
2021/08/28 01:00:52;;;;;;;13.30;9.13;;;12.80;99.90;;;;;;4888822;29;20076;-68
2021/08/28 01:03:24;;;;;;;12.82;8.65;;;12.70;99.90;;;;;;4910363;29;20055;-68
2021/08/28 01:05:56;;;;;;;11.90;8.23;;;12.60;99.90;;;;;;4882633;29;20064;-68
2021/08/28 01:08:37;;;;;;;10.40;7.93;;;12.60;99.90;;;;;;4891955;29;20127;-68
2021/08/28 01:11:40;;;;;;;12.60;8.63;;;12.60;99.90;;;;;;4888120;29;20056;-68
2021/08/28 01:14:12;;;;;;;13.15;9.48;;;12.70;99.90;;;;;;4908910;29;20044;-68
2021/08/28 01:16:46;;;;;;;12.43;9.02;;;12.70;99.90;;;;;;4893687;29;20059;-68
2021/08/28 01:19:26;;;;;;;12.52;8.73;;;12.70;99.90;;;;;;4882605;29;20055;-68
2021/08/28 01:21:54;;;;;;;13.23;8.98;;;12.60;99.90;;;;;;4892557;29;20464;-68
2021/08/28 01:24:44;;;;;;;12.02;8.18;;;12.60;99.90;;;;;;4882658;29;20068;-68
2021/08/28 01:27:45;;;;;;;11.02;7.53;;;12.60;99.90;;;;;;4904535;29;20609;-68
2021/08/28 01:30:17;;;;;;;11.15;7.68;;;12.60;99.90;;;;;;4891970;29;20393;-68
2021/08/28 01:32:45;;;;;;;11.82;7.68;;;12.70;99.90;;;;;;4903194;29;20048;-68
2021/08/28 01:35:13;;;;;;;11.45;8.35;;;12.70;99.90;;;;;;4892726;29;20156;-68
2021/08/28 01:37:43;;;;;;;10.25;7.25;;;12.70;99.90;;;;;;4890074;29;20518;-68
2021/08/28 01:40:33;;;;;;;9.80;7.18;;;12.80;99.90;;;;;;4890765;29;20060;-68
2021/08/28 01:43:01;;;;;;;10.80;7.70;;;12.80;99.90;;;;;;4888946;29;20049;-68
2021/08/28 01:45:29;;;;;;;8.52;6.18;;;12.80;99.90;;;;;;4892249;29;20139;-68
2021/08/28 01:48:02;;;;;;;9.35;6.90;;;12.70;99.90;;;;;;4909947;29;20557;-68
2021/08/28 01:50:30;;;;;;;10.45;7.20;;;12.70;99.90;;;;;;4891960;29;20045;-68
2021/08/28 01:53:10;;;;;;;9.02;6.30;;;12.70;99.90;;;;;;4906443;29;20049;-68
2021/08/28 01:55:40;;;;;;;8.52;6.40;;;12.70;99.90;;;;;;4891832;29;20036;-68
2021/08/28 01:58:07;;;;;;;10.10;7.57;;;12.70;99.90;;;;;;4890237;29;20048;-68
2021/08/28 02:00:55;;;;;;;10.50;7.03;;;12.80;99.90;;;;;;4872529;29;20394;-68
2021/08/28 02:03:43;;;;;;;9.43;7.18;;;12.70;99.90;;;;;;4890200;29;20132;-68
2021/08/28 02:06:22;;;;;;;10.15;6.95;;;12.70;99.90;;;;;;4890448;29;20055;-68
2021/08/28 02:08:54;;;;;;;12.45;7.78;;;12.70;99.90;;;;;;4876843;29;20575;-68
2021/08/28 02:11:33;;;;;;;11.10;7.60;;;12.70;99.90;;;;;;4893715;29;20523;-68
2021/08/28 02:14:10;;;;;;;13.18;8.10;;;12.70;99.90;;;;;;4893576;29;20533;-68
2021/08/28 02:16:42;;;;;;;11.90;8.90;;;12.70;99.90;;;;;;4893874;29;20092;-68
2021/08/28 02:19:17;;;;;;;12.18;8.82;;;12.60;99.90;;;;;;4891002;29;20578;-68
2021/08/28 02:22:33;;;;;;;12.85;9.10;;;12.70;99.90;;;;;;4866156;29;20135;-68
2021/08/28 02:25:44;;;;;;;11.18;8.52;;;12.60;99.90;;;;;;4891696;29;20061;-68
2021/08/28 02:28:16;;;;;;;13.68;9.68;;;12.60;99.90;;;;;;4878970;29;20037;-68
2021/08/28 02:30:45;;;;;;;12.80;8.65;;;12.60;99.90;;;;;;4892472;29;20088;-68
2021/08/28 02:33:15;;;;;;;12.85;8.70;;;12.60;99.90;;;;;;4889177;29;20048;-68
2021/08/28 02:35:52;;;;;;;11.38;8.82;;;12.60;99.90;;;;;;4892600;29;20041;-68
2021/08/28 02:38:20;;;;;;;12.27;9.30;;;12.60;99.90;;;;;;4878894;29;20044;-67
2021/08/28 02:40:52;;;;;;;13.52;9.48;;;12.60;99.90;;;;;;4890604;29;20096;-68
2021/08/28 02:43:21;;;;;;;12.68;9.05;;;12.60;99.90;;;;;;4876064;29;20037;-67
2021/08/28 02:45:51;;;;;;;17.20;9.57;;;12.60;99.90;;;;;;4888747;29;20037;-67
2021/08/28 02:48:25;;;;;;;14.65;9.57;;;12.60;99.90;;;;;;4892833;29;20064;-68
2021/08/28 02:50:54;;;;;;;15.25;9.43;;;12.60;99.90;;;;;;4909793;29;20049;-68
2021/08/28 02:53:26;;;;;;;11.80;9.00;;;12.60;99.90;;;;;;4875468;29;20041;-68
2021/08/28 02:55:55;;;;;;;10.95;8.35;;;12.60;99.90;;;;;;4887077;29;20049;-68
2021/08/28 02:58:23;;;;;;;10.35;7.40;;;12.60;99.90;;;;;;4884952;29;20492;-67
2021/08/28 03:00:52;;;;;;;11.65;8.25;;;12.60;99.90;;;;;;4892721;29;20048;-67
2021/08/28 03:03:21;;;;;;;11.95;8.10;;;12.60;99.90;;;;;;4892635;29;20041;-67
2021/08/28 03:05:52;;;;;;;9.98;7.82;;;12.60;99.90;;;;;;4892479;29;20064;-67
2021/08/28 03:08:21;;;;;;;13.77;8.35;;;12.70;99.90;;;;;;4887478;29;20063;-68
2021/08/28 03:10:51;;;;;;;12.48;6.97;;;12.70;99.90;;;;;;4893006;29;20063;-68
2021/08/28 03:13:21;;;;;;;10.07;7.07;;;12.70;99.90;;;;;;4877544;29;20104;-68
2021/08/28 03:15:51;;;;;;;12.68;7.53;;;12.60;99.90;;;;;;4892745;29;20453;-68
2021/08/28 03:18:21;;;;;;;9.00;6.68;;;12.70;99.90;;;;;;4893772;29;20051;-67
2021/08/28 03:20:52;;;;;;;9.02;6.68;;;12.60;99.90;;;;;;4872638;29;20555;-68
2021/08/28 03:23:23;;;;;;;11.85;6.78;;;12.70;99.90;;;;;;4885913;29;20397;-67
2021/08/28 03:25:55;;;;;;;9.30;6.75;;;12.70;99.90;;;;;;4876245;29;20056;-68
2021/08/28 03:28:26;;;;;;;9.93;6.63;;;12.70;99.90;;;;;;4877484;29;20413;-68
2021/08/28 03:30:54;;;;;;;8.77;6.28;;;12.70;99.90;;;;;;4892700;29;20528;-68
2021/08/28 03:33:22;;;;;;;9.77;6.68;;;12.70;99.90;;;;;;4893013;29;20052;-68
2021/08/28 03:35:56;;;;;;;10.50;6.95;;;12.70;99.90;;;;;;4876273;29;20389;-68
2021/08/28 03:38:24;;;;;;;9.65;6.53;;;12.80;99.90;;;;;;4891798;29;20048;-67
2021/08/28 03:40:56;;;;;;;10.10;7.28;;;12.70;99.90;;;;;;4889973;29;20100;-67
2021/08/28 03:43:23;;;;;;;10.55;7.65;;;12.80;99.90;;;;;;4876237;29;20048;-68
2021/08/28 03:45:52;;;;;;;10.50;7.78;;;12.80;99.90;;;;;;4891593;29;20060;-67
2021/08/28 03:48:20;;;;;;;12.00;7.13;;;12.70;99.90;;;;;;4877065;29;20107;-68
2021/08/28 03:50:48;;;;;;;8.75;6.47;;;12.70;99.90;;;;;;4891185;29;20479;-67
2021/08/28 03:53:17;;;;;;;10.20;6.43;;;12.80;99.90;;;;;;4896085;29;20094;-68
2021/08/28 03:55:44;;;;;;;10.25;6.53;;;12.70;99.90;;;;;;4892360;29;20063;-67
2021/08/28 03:58:12;;;;;;;8.25;6.68;;;12.80;99.90;;;;;;4893363;29;20051;-67
2021/08/28 04:00:43;;;;;;;9.93;7.22;;;12.70;99.90;;;;;;4860696;29;20071;-67
2021/08/28 04:03:11;;;;;;;15.60;7.25;;;12.70;99.90;;;;;;4890585;29;20051;-67
2021/08/28 04:05:38;;;;;;;10.15;6.88;;;12.70;99.90;;;;;;4891008;29;20040;-67
2021/08/28 04:08:10;;;;;;;9.93;7.05;;;12.60;99.90;;;;;;4878832;29;20049;-67
2021/08/28 04:10:44;;;;;;;9.85;6.82;;;12.70;99.90;;;;;;4892315;29;20044;-67
2021/08/28 04:13:16;;;;;;;8.52;6.35;;;12.60;99.90;;;;;;4877249;29;20075;-67
2021/08/28 04:15:43;;;;;;;8.43;6.60;;;12.50;99.90;;;;;;4902133;29;20061;-69
2021/08/28 04:18:34;;;;;;;12.70;6.93;;;12.60;99.90;;;;;;4877045;29;20061;-69
2021/08/28 04:21:20;;;;;;;9.25;6.18;;;12.50;99.90;;;;;;4891216;29;20547;-69
2021/08/28 04:23:47;;;;;;;11.07;6.72;;;12.60;99.90;;;;;;4892634;29;20037;-69
2021/08/28 04:26:14;;;;;;;8.48;6.35;;;12.50;99.90;;;;;;4892806;29;20048;-69
2021/08/28 04:28:42;;;;;;;11.70;6.93;;;12.50;99.90;;;;;;4875828;29;20553;-69
2021/08/28 04:31:10;;;;;;;12.30;6.88;;;12.50;99.90;;;;;;4890119;29;20063;-68
2021/08/28 04:33:38;;;;;;;9.95;7.28;;;12.50;99.90;;;;;;4884786;29;20496;-67
2021/08/28 04:36:06;;;;;;;10.02;6.63;;;12.40;99.90;;;;;;4890882;29;20531;-67
2021/08/28 04:38:34;;;;;;;7.78;6.07;;;12.40;99.90;;;;;;4890548;29;20515;-68
2021/08/28 04:41:01;;;;;;;9.40;6.63;;;12.40;99.90;;;;;;4883112;29;20037;-68
2021/08/28 04:43:29;;;;;;;9.52;6.82;;;12.50;99.90;;;;;;4891547;29;20033;-67
2021/08/28 04:46:16;;;;;;;8.48;6.38;;;12.50;99.90;;;;;;4885067;29;20052;-67
2021/08/28 04:48:52;;;;;;;9.63;6.85;;;12.50;99.90;;;;;;4891997;29;20041;-68
2021/08/28 04:51:36;;;;;;;10.18;6.00;;;12.60;99.90;;;;;;4888948;29;20060;-68
2021/08/28 04:54:07;;;;;;;12.88;6.07;;;12.70;99.90;;;;;;4891699;29;20056;-67
2021/08/28 04:56:34;;;;;;;9.57;6.40;;;12.60;99.90;;;;;;4875020;29;20416;-68
2021/08/28 04:59:03;;;;;;;8.10;5.95;;;12.60;99.90;;;;;;4890867;29;20088;-68
2021/08/28 05:01:46;;;;;;;8.13;5.35;;;12.70;99.90;;;;;;4889468;29;20440;-68
2021/08/28 05:04:14;;;;;;;7.63;5.85;;;12.60;99.90;;;;;;4888176;29;20041;-68
2021/08/28 05:06:42;;;;;;;8.05;6.05;;;12.70;99.90;;;;;;4872133;29;20045;-68
2021/08/28 05:09:12;;;;;;;10.40;6.95;;;12.70;99.90;;;;;;4891611;29;20172;-68
2021/08/28 05:11:40;;;;;;;7.85;5.82;;;12.70;99.90;;;;;;4892362;29;20044;-68
2021/08/28 05:14:07;;;;;;;9.52;6.43;;;12.70;99.90;;;;;;4876027;29;20057;-68
2021/08/28 05:16:34;;;;;;;7.25;5.45;;;12.70;99.90;;;;;;4892490;29;20135;-68
2021/08/28 05:19:12;;;;;;;8.95;7.00;;;12.80;99.90;;;;;;4890603;29;20036;-68
2021/08/28 05:21:39;;;;;;;8.60;6.38;;;12.80;99.90;;;;;;4892019;29;20052;-67
2021/08/28 05:24:27;;;;;;;11.20;6.43;;;12.80;99.90;;;;;;4892347;29;20552;-68
2021/08/28 05:26:57;;;;;;;7.95;5.95;;;12.80;99.90;;;;;;4892711;29;20036;-68
2021/08/28 05:29:24;;;;;;;12.45;6.38;;;12.80;99.90;;;;;;4891881;29;20403;-68
2021/08/28 05:31:52;;;;;;;7.57;5.78;;;12.80;99.90;;;;;;4888199;29;20044;-68
2021/08/28 05:34:19;;;;;;;8.85;5.43;;;12.80;99.90;;;;;;4892311;29;20067;-68
2021/08/28 05:37:24;;;;;;;9.23;5.90;;;12.90;99.90;;;;;;4888263;29;20094;-68
2021/08/28 05:40:06;;;;;;;7.38;5.75;;;13.00;99.90;;;;;;4867147;29;20045;-68
2021/08/28 05:42:35;;;;;;;;;;;13.00;99.90;;;;;;4906334;29;20407;-68
2021/08/28 05:45:03;;;;;;;7.47;5.32;;;13.10;99.90;;;;;;4884058;29;19928;-68
2021/08/28 05:47:30;;;;;;;7.97;6.10;;;13.10;99.90;;;;;;4890264;29;20421;-68
2021/08/28 05:49:59;;;;;;;8.00;6.15;;;13.10;99.90;;;;;;4890766;29;20052;-68
2021/08/28 05:52:27;;;;;;;7.38;5.13;;;13.20;99.90;;;;;;4908964;29;20555;-68
2021/08/28 05:54:55;;;;;;;7.40;5.38;;;13.20;99.90;;;;;;4878710;29;20135;-68
2021/08/28 05:57:22;;;;;;;8.10;5.53;;;13.30;99.90;;;;;;4893525;29;20044;-68
2021/08/28 05:59:49;;;;;;;7.45;4.90;;;13.30;99.90;;;;;;4894172;29;20132;-68
2021/08/28 06:02:17;;;;;;;8.65;5.30;;;13.40;99.90;;;;;;4864060;29;20376;-68
2021/08/28 06:04:46;;;;;;;6.72;4.75;;;13.30;99.90;;;;;;4880386;29;20041;-68
2021/08/28 06:07:13;;;;;;;8.30;5.20;;;13.40;99.90;;;;;;4895538;29;20041;-68
2021/08/28 06:09:50;;;;;;;6.47;4.97;;;13.50;99.90;;;;;;4892995;29;20135;-68
2021/08/28 06:12:41;;;;;;;5.85;4.45;;;13.70;99.90;;;;;;4865897;29;20057;-68
2021/08/28 06:15:47;;;;;;;7.63;4.40;;;13.70;99.90;;;;;;4852856;29;20229;-68
2021/08/28 06:18:15;;;;;;;6.68;4.28;;;13.80;99.90;;;;;;4873989;29;20053;-68
2021/08/28 06:20:43;;;;;;;7.30;4.60;;;13.90;99.90;;;;;;4856107;29;20145;-68
2021/08/28 06:23:11;;;;;;;5.80;4.22;;;14.00;99.90;;;;;;4865822;29;20619;-68
2021/08/28 06:25:57;;;;;;;6.25;4.07;;;14.00;99.90;;;;;;4874336;29;20050;-68
2021/08/28 06:28:24;;;;;;;4.95;3.78;;;14.00;99.90;;;;;;4856851;29;20071;-68
2021/08/28 06:30:52;;;;;;;7.85;4.40;;;14.00;99.90;;;;;;4873371;29;20075;-68
2021/08/28 06:33:19;;;;;;;7.45;3.85;;;14.10;99.90;;;;;;4878480;29;20447;-68
2021/08/28 06:35:46;;;;;;;5.38;3.92;;;14.20;99.90;;;;;;4872077;29;20089;-68
2021/08/28 06:38:46;;;;;;;4.70;3.35;;;14.30;99.90;;;;;;4856215;29;20089;-68
2021/08/28 06:41:32;;;;;;;6.18;3.00;;;14.50;99.90;;;;;;4850888;29;20091;-69
2021/08/28 06:44:18;;;;;;;5.25;3.20;;;14.60;99.90;;;;;;4856154;29;20066;-68
2021/08/28 06:47:09;;;;;;;6.15;3.60;;;14.50;99.90;;;;;;4803868;29;20047;-68
2021/08/28 06:49:55;;;;;;;4.43;3.08;;;14.40;99.90;;;;;;4808974;29;20073;-68
2021/08/28 06:52:41;;;;;;;6.88;3.40;;;14.30;99.90;;;;;;4801536;29;20134;-68
2021/08/28 06:55:26;;;;;;;4.97;3.20;;;14.20;99.90;;;;;;4798269;29;20876;-68
2021/08/28 06:58:25;;;;;;;6.13;3.25;;;14.30;99.90;;;;;;4800935;29;20578;-68
2021/08/28 07:01:25;;;;;;;8.43;3.38;;;14.30;99.90;;;;;;4792273;29;20433;-68
2021/08/28 07:04:16;;;;;;;6.88;3.80;;;14.50;99.90;;;;;;4768692;30;20056;-68
2021/08/28 07:07:10;;;;;;;8.40;4.05;;;14.60;99.90;;;;;;4753170;30;20088;-69
2021/08/28 07:09:39;;;;;;;4.43;3.03;;;14.70;99.90;;;;;;4765701;30;20059;-69
2021/08/28 07:12:07;;;;;;;5.65;3.63;;;14.70;99.90;;;;;;4772737;30;20541;-69
2021/08/28 07:14:34;;;;;;;6.45;3.63;;;14.80;99.90;;;;;;4740917;30;20060;-69
2021/08/28 07:17:02;;;;;;;5.25;2.60;;;14.90;99.90;;;;;;4724217;30;20057;-69
2021/08/28 07:19:29;;;;;;;4.72;2.67;;;14.80;99.90;;;;;;4732241;30;20052;-69
2021/08/28 07:21:57;;;;;;;5.10;3.22;;;14.80;99.90;;;;;;4731435;30;20436;-68
2021/08/28 07:24:25;;;;;;;4.63;2.90;;;14.80;99.90;;;;;;4773470;29;20155;-68
2021/08/28 07:26:52;;;;;;;5.00;3.58;;;14.70;99.90;;;;;;4803817;29;20542;-67
2021/08/28 07:29:43;;;;;;;4.55;3.25;;;14.70;99.90;;;;;;4782289;30;20656;-67
2021/08/28 07:32:11;;;;;;;5.63;3.38;;;14.50;99.90;;;;;;4782021;30;20141;-68
2021/08/28 07:34:39;;;;;;;5.43;3.17;;;14.30;99.90;;;;;;4767550;30;20101;-68
2021/08/28 07:37:07;;;;;;;7.13;3.50;;;14.30;99.90;;;;;;4781860;29;20055;-68
2021/08/28 07:39:35;;;;;;;5.47;3.88;;;14.30;99.90;;;;;;4779895;30;20445;-68
2021/08/28 07:42:04;;;;;;;6.38;3.53;;;14.20;99.90;;;;;;4823396;29;20096;-68
2021/08/28 07:44:33;;;;;;;5.47;3.17;;;14.30;99.90;;;;;;4821119;29;20545;-68
2021/08/28 07:47:01;;;;;;;6.25;3.15;;;14.50;99.90;;;;;;4821237;29;20066;-68
2021/08/28 07:49:32;;;;;;;6.00;3.10;;;14.50;99.90;;;;;;4836343;29;20810;-68
2021/08/28 07:51:59;;;;;;;5.35;3.50;;;14.50;99.90;;;;;;4819950;29;20133;-68
2021/08/28 07:54:28;;;;;;;8.55;3.72;;;14.50;99.90;;;;;;4836550;29;20054;-68
2021/08/28 07:56:59;;;;;;;6.78;3.40;;;14.60;99.90;;;;;;4818529;29;20557;-68
2021/08/28 07:59:27;;;;;;;4.60;3.20;;;14.60;99.90;;;;;;4805852;29;20136;-68
2021/08/28 08:01:54;;;;;;;6.20;3.03;;;14.60;99.90;;;;;;4834331;29;20573;-68
2021/08/28 08:04:24;;;;;;;5.88;3.08;;;14.60;99.90;;;;;;4833728;29;20145;-68
2021/08/28 08:06:59;;;;;;;4.30;2.70;;;14.70;99.90;;;;;;4859430;29;20135;-68
2021/08/28 08:10:07;;;;;;;4.38;2.70;;;14.60;99.90;;;;;;4851921;29;20064;-68
2021/08/28 08:12:53;;;;;;;5.43;2.72;;;14.50;99.90;;;;;;4835585;29;20061;-68
2021/08/28 08:15:55;;;;;;;4.95;2.90;;;14.50;99.90;;;;;;4781050;29;20070;-68
2021/08/28 08:18:43;;;;;;;5.95;2.80;;;14.60;99.90;;;;;;4779277;30;20126;-68
2021/08/28 08:21:30;;;;;;;4.97;2.53;;;14.50;99.90;;;;;;4780071;29;20173;-68
2021/08/28 08:24:18;;;;;;;3.88;2.50;;;14.70;99.90;;;;;;4780501;30;20059;-68
2021/08/28 08:27:18;;;;;;;5.20;2.70;;;14.70;99.90;;;;;;4750172;30;20083;-68
2021/08/28 08:30:00;;;;;;;4.45;2.45;;;14.90;99.90;;;;;;4730559;30;20085;-68
2021/08/28 08:32:42;;;;;;;6.15;2.70;;;15.30;99.90;;;;;;4752054;30;20548;-68
2021/08/28 08:35:10;;;;;;;3.35;2.22;;;15.60;99.90;;;;;;4751581;30;20491;-68
2021/08/28 08:37:38;;;;;;;4.80;2.40;;;15.90;99.90;;;;;;4730089;30;20118;-68
2021/08/28 08:40:06;;;;;;;3.00;2.08;;;16.30;99.90;;;;;;4738295;30;20060;-68
2021/08/28 08:42:47;;;;;;;9.32;2.65;;;16.70;99.90;;;;;;4763809;30;20059;-68
2021/08/28 08:45:18;;;;;;;6.60;2.40;;;16.80;99.90;;;;;;4764732;30;20411;-68
2021/08/28 08:47:45;;;;;;;6.85;2.55;;;16.80;99.90;;;;;;4765006;30;20067;-68
2021/08/28 08:50:14;;;;;;;3.47;2.10;;;16.90;99.90;;;;;;4779742;29;20062;-68
2021/08/28 08:52:49;;;;;;;5.07;2.53;;;17.00;99.90;;;;;;4802691;29;20579;-68
2021/08/28 08:55:31;;;;;;;6.60;2.40;;;16.90;99.90;;;;;;4816934;29;20058;-68
2021/08/28 08:58:17;;;;;;;6.13;2.50;;;16.70;99.90;;;;;;4805892;29;20054;-68
2021/08/28 09:00:55;;;;;;;5.80;2.72;;;16.70;99.90;;;;;;4797655;29;20047;-68
2021/08/28 09:03:25;;;;;;;3.80;2.40;;;16.70;99.90;;;;;;4865578;29;20143;-68
2021/08/28 09:06:03;;;;;;;3.67;2.60;;;16.70;99.90;;;;;;4882378;29;20123;-68
2021/08/28 09:08:59;;;;;;;3.92;2.58;;;16.90;99.90;;;;;;4877687;29;20052;-68
2021/08/28 09:11:33;;;;;;;5.53;2.75;;;17.40;99.90;;;;;;4885787;29;20097;-68
2021/08/28 09:14:20;;;;;;;5.03;3.00;;;17.50;99.90;;;;;;4895460;29;20056;-68
2021/08/28 09:16:52;;;;;;;5.15;2.45;;;17.30;99.90;;;;;;4892141;29;20045;-68
2021/08/28 09:19:34;;;;;;;;;;;17.10;99.90;;;;;;4896028;29;20490;-68
2021/08/28 09:22:05;;;;;;;6.97;3.38;;;17.20;99.90;;;;;;4897646;29;19927;-68
2021/08/28 09:24:44;;;;;;;6.60;3.08;;;17.10;99.90;;;;;;4897055;29;20041;-68
2021/08/28 09:27:30;;;;;;;7.10;3.20;;;16.90;99.90;;;;;;4896821;29;20065;-67
2021/08/28 09:29:57;;;;;;;10.13;3.10;;;16.90;99.90;;;;;;4895561;29;20131;-67
2021/08/28 09:32:24;;;;;;;5.50;2.70;;;17.10;99.90;;;;;;4901845;29;20045;-67
2021/08/28 09:34:52;;;;;;;7.47;2.92;;;17.10;99.90;;;;;;4896995;29;20048;-67
2021/08/28 09:37:28;;;;;;;6.82;3.03;;;17.10;99.90;;;;;;4896794;29;20128;-67
2021/08/28 09:40:01;;;;;;;5.40;2.97;;;17.10;99.90;;;;;;4890254;29;20129;-67
2021/08/28 09:42:29;;;;;;;4.93;2.95;;;17.20;99.90;;;;;;4883703;29;20123;-67
2021/08/28 09:44:57;;;;;;;5.88;2.50;;;17.30;99.90;;;;;;4893008;29;20151;-67
2021/08/28 09:47:30;;;;;;;4.43;2.70;;;17.40;99.90;;;;;;4895535;29;20080;-68
2021/08/28 09:49:58;;;;;;;4.90;2.30;;;17.70;99.90;;;;;;4896242;29;20133;-67
2021/08/28 09:52:27;;;;;;;5.00;2.25;;;18.10;99.90;;;;;;4895838;29;20152;-68
2021/08/28 09:54:55;;;;;;;5.80;2.75;;;18.40;99.90;;;;;;4897408;29;20052;-68
2021/08/28 09:57:28;;;;;;;4.95;2.80;;;18.40;99.90;;;;;;4896501;29;20079;-68
2021/08/28 09:59:59;;;;;;;5.10;2.85;;;18.50;99.90;;;;;;4890087;29;20100;-68
2021/08/28 10:02:27;;;;;;;8.18;3.80;;;18.60;99.90;;;;;;4892368;29;20416;-68
2021/08/28 10:04:57;;;;;;;3.67;2.15;;;18.50;99.90;;;;;;4893556;29;20096;-68
2021/08/28 10:07:31;;;;;;;4.38;2.20;;;18.60;99.90;;;;;;4882350;29;20064;-69
2021/08/28 10:10:02;;;;;;;4.55;2.45;;;18.90;99.90;;;;;;4908608;29;20052;-68
2021/08/28 10:12:32;;;;;;;5.23;2.40;;;19.20;99.90;;;;;;4894795;29;20123;-69
2021/08/28 10:15:02;;;;;;;5.88;2.30;;;19.30;99.90;;;;;;4893135;29;20365;-69
2021/08/28 10:17:31;;;;;;;4.28;2.17;;;19.40;99.90;;;;;;4890893;29;20606;-68
2021/08/28 10:19:59;;;;;;;5.35;1.90;;;19.10;99.90;;;;;;4892423;29;20127;-69
2021/08/28 10:22:29;;;;;;;4.15;2.20;;;18.60;99.90;;;;;;4892808;29;20072;-69
2021/08/28 10:24:58;;;;;;;5.72;2.63;;;18.30;99.90;;;;;;4866290;29;20385;-69
2021/08/28 10:27:27;;;;;;;4.78;2.38;;;18.30;99.90;;;;;;4894912;29;20083;-68
2021/08/28 10:29:55;;;;;;;7.70;2.28;;;18.10;99.90;;;;;;4878898;29;20053;-68
2021/08/28 10:32:23;;;;;;;5.40;2.67;;;18.00;99.90;;;;;;4904219;29;20048;-67
2021/08/28 10:34:51;;;;;;;4.43;2.20;;;17.90;99.90;;;;;;4895604;29;20464;-68
2021/08/28 10:37:19;;;;;;;3.65;2.20;;;17.70;99.90;;;;;;4894921;29;20407;-67
2021/08/28 10:39:48;;;;;;;3.45;2.20;;;17.60;99.90;;;;;;4884258;29;20045;-66
2021/08/28 10:42:16;;;;;;;5.22;2.28;;;17.60;99.90;;;;;;4890486;29;20048;-67
2021/08/28 10:44:43;;;;;;;4.70;2.40;;;17.90;99.90;;;;;;4894242;29;20049;-67
2021/08/28 10:47:15;;;;;;;3.20;2.10;;;18.20;99.90;;;;;;4878875;29;20063;-68
2021/08/28 10:49:47;;;;;;;3.60;2.15;;;18.40;99.90;;;;;;4879192;29;20044;-68
2021/08/28 10:52:20;;;;;;;3.08;1.88;;;18.50;99.90;;;;;;4894958;29;20508;-69
2021/08/28 10:55:10;;;;;;;3.42;2.08;;;18.90;99.90;;;;;;4880973;29;20446;-68
2021/08/28 10:57:38;;;;;;;5.53;1.90;;;19.30;99.90;;;;;;4895801;29;20452;-68
2021/08/28 11:00:15;;;;;;;5.25;2.00;;;19.60;99.90;;;;;;4895659;29;20084;-69
2021/08/28 11:02:57;;;;;;;3.38;1.83;;;19.90;99.90;;;;;;4895653;29;20096;-69
2021/08/28 11:05:28;;;;;;;2.88;1.63;;;20.10;99.90;;;;;;4892917;29;20044;-69
2021/08/28 11:08:16;;;;;;;4.72;1.83;;;20.10;99.90;;;;;;4895573;29;20068;-69
2021/08/28 11:11:04;;;;;;;5.28;1.80;;;19.60;99.90;;;;;;4878402;29;20063;-68
2021/08/28 11:14:00;;;;;;;3.05;1.55;;;19.00;99.90;;;;;;4890814;29;20067;-69
2021/08/28 11:16:41;;;;;;;3.88;1.40;;;18.30;99.90;;;;;;4887979;29;20066;-68
2021/08/28 11:19:30;;;;;;;1.73;1.02;;;17.80;99.90;;;;;;4894596;29;20056;-68
2021/08/28 11:21:58;;;;;;;5.68;1.40;;;16.90;99.90;;;;;;4890580;29;20068;-68
2021/08/28 11:24:27;;;;;;;2.75;1.20;;;16.60;99.90;;;;;;4894713;29;20798;-68
2021/08/28 11:27:01;;;;;;;2.85;1.10;;;16.50;99.90;;;;;;4895515;29;20523;-69
2021/08/28 11:29:28;;;;;;;2.42;1.25;;;16.20;99.90;;;;;;4893644;29;20041;-68
2021/08/28 11:32:10;;;;;;;3.10;1.30;;;16.20;99.90;;;;;;4902528;29;20052;-69
2021/08/28 11:34:41;;;;;;;2.10;1.00;;;16.00;99.90;;;;;;4887528;29;20040;-68
2021/08/28 11:37:27;;;;;;;1.40;1.00;;;15.90;99.90;;;;;;4894240;29;20052;-68
2021/08/28 11:40:22;;;;;;;3.08;1.30;;;15.60;99.90;;;;;;4891182;29;20052;-67
2021/08/28 11:42:50;;;;;;;2.00;1.10;;;15.50;99.90;;;;;;4888733;29;20095;-68
2021/08/28 11:45:18;;;;;;;3.78;1.15;;;15.40;99.90;;;;;;4883912;29;20135;-67
2021/08/28 11:47:46;;;;;;;1.85;1.20;;;15.40;99.90;;;;;;4885532;29;20389;-67
2021/08/28 11:50:13;;;;;;;1.92;1.25;;;15.50;99.90;;;;;;4883398;29;20045;-67
2021/08/28 11:52:40;;;;;;;8.90;1.40;;;15.50;99.90;;;;;;4878385;29;20419;-67
2021/08/28 11:55:10;;;;;;;2.75;1.20;;;15.30;99.90;;;;;;4878226;29;20080;-67
2021/08/28 11:57:37;;;;;;;2.67;1.48;;;15.30;99.90;;;;;;4877183;29;20475;-67
2021/08/28 12:00:08;;;;;;;2.10;1.40;;;15.30;99.90;;;;;;4909327;29;20072;-67
2021/08/28 12:02:38;;;;;;;2.72;1.38;;;15.60;99.90;;;;;;4903396;29;20454;-67
2021/08/28 12:05:11;;;;;;;2.33;1.30;;;15.90;99.90;;;;;;4892094;29;20052;-68
2021/08/28 12:07:40;;;;;;;2.45;1.17;;;16.00;99.90;;;;;;4889594;29;20072;-68
2021/08/28 12:10:08;;;;;;;1.40;1.00;;;16.50;99.90;;;;;;4891459;29;20044;-67
2021/08/28 12:12:36;;;;;;;2.08;1.00;;;17.20;99.90;;;;;;4886441;29;20488;-68
2021/08/28 12:15:05;;;;;;;1.38;0.80;;;17.90;99.90;;;;;;4893830;29;20845;-69
2021/08/28 12:17:33;;;;;;;1.25;0.70;;;18.50;99.90;;;;;;4894132;29;20472;-68
2021/08/28 12:20:03;;;;;;;1.77;0.68;;;18.70;99.90;;;;;;4893105;29;20453;-68
2021/08/28 12:22:31;;;;;;;1.20;0.80;;;19.20;99.90;;;;;;4893944;29;20072;-68
2021/08/28 12:24:58;;;;;;;3.22;1.10;;;19.30;99.90;;;;;;4894548;29;20048;-68
2021/08/28 12:27:26;;;;;;;1.88;0.70;;;19.50;99.90;;;;;;4891162;29;20079;-68
2021/08/28 12:29:54;;;;;;;1.42;0.80;;;19.80;99.90;;;;;;4883837;29;20037;-68
2021/08/28 12:32:24;;;;;;;1.33;0.82;;;20.10;99.90;;;;;;4899440;29;20127;-68
2021/08/28 12:34:54;;;;;;;2.92;1.05;;;20.30;99.90;;;;;;4895519;29;20072;-68
2021/08/28 12:37:24;;;;;;;1.10;0.82;;;20.40;99.90;;;;;;4891170;29;20139;-68
2021/08/28 12:39:53;;;;;;;1.80;1.00;;;21.10;99.90;;;;;;4885642;29;20504;-69
2021/08/28 12:42:23;;;;;;;1.98;1.15;;;21.70;99.90;;;;;;4892780;29;20100;-69
2021/08/28 12:44:53;;;;;;;3.22;1.27;;;22.30;99.90;;;;;;4887386;29;20643;-68
2021/08/28 12:47:27;;;;;;;1.70;1.15;;;23.00;99.90;;;;;;4892312;29;20064;-68
2021/08/28 12:49:54;;;;;;;2.10;1.30;;;23.20;99.90;;;;;;4885149;29;20123;-68
2021/08/28 12:52:33;;;;;;;1.83;1.30;;;23.10;99.90;;;;;;4894896;29;20055;-68
2021/08/28 12:55:00;;;;;;;2.25;1.30;;;23.00;99.90;;;;;;4893145;29;20052;-68
2021/08/28 12:57:30;;;;;;;3.47;1.40;;;23.40;99.90;;;;;;4888301;29;20403;-68
2021/08/28 13:00:08;;;;;;;2.20;1.10;;;24.10;99.90;;;;;;4882628;29;20053;-68
2021/08/28 13:02:45;;;;;;;3.45;1.33;;;24.50;99.90;;;;;;4893416;29;20586;-68
2021/08/28 13:05:30;;;;;;;8.90;5.55;;;24.10;99.90;;;;;;4893698;29;20465;-68
2021/08/28 13:08:00;;;;;;;2.03;1.20;;;23.80;99.90;;;;;;4873764;29;20037;-68
2021/08/28 13:10:29;;;;;;;2.00;1.15;;;23.70;99.90;;;;;;4890956;29;20519;-68
2021/08/28 13:13:03;;;;;;;4.38;1.35;;;23.80;99.90;;;;;;4892009;29;20490;-68
2021/08/28 13:15:30;;;;;;;3.17;1.27;;;23.80;99.90;;;;;;4893642;29;20847;-68
2021/08/28 13:18:12;;;;;;;1.40;0.90;;;23.80;99.90;;;;;;4892707;29;20072;-68